Time;durP1;ratioP1;P1;durP2;ratioP2;P2;SDS_P1;SDS_P2;PMS_P1;PMS_P2;Temp;Humidity;BMP_temperature;BMP_pressure;BME280_temperature;BME280_humidity;BME280_pressure;Samples;Min_cycle;Max_cycle;Signal;HPM_P1;HPM_P2
2023/12/14 00:00:07;;;;;;;24.13;14.83;;;;;;;9.03;100.00;100320.66;2085175;28;20673;-74
2023/12/14 00:01:10;;;;;;;23.20;14.83;;;;;;;9.28;100.00;100354.06;2084718;28;20192;-75
2023/12/14 00:02:10;;;;;;;24.77;15.37;;;;;;;9.26;100.00;100362.78;2082260;28;20486;-74
2023/12/14 00:03:11;;;;;;;20.50;13.30;;;;;;;9.28;100.00;100362.34;2079090;28;20423;-74
2023/12/14 00:04:12;;;;;;;26.70;15.07;;;;;;;9.27;100.00;100366.31;2078339;28;20270;-74
2023/12/14 00:05:12;;;;;;;24.17;14.57;;;;;;;9.23;100.00;100362.84;2080783;28;20184;-74
2023/12/14 00:06:13;;;;;;;21.30;14.00;;;;;;;9.25;100.00;100358.47;2080096;28;20246;-74
2023/12/14 00:07:15;;;;;;;23.63;14.03;;;;;;;9.28;100.00;100359.59;2086656;28;20210;-74
2023/12/14 00:08:15;;;;;;;23.63;15.60;;;;;;;9.25;100.00;100352.13;2078863;28;20885;-74
2023/12/14 00:09:16;;;;;;;25.23;14.60;;;;;;;9.07;100.00;100324.88;2079572;28;20443;-75
2023/12/14 00:10:17;;;;;;;27.07;15.17;;;;;;;8.25;100.00;100200.03;2084749;28;20200;-74
2023/12/14 00:11:18;;;;;;;25.23;14.37;;;;;;;9.17;100.00;100343.22;2080308;28;20177;-74
2023/12/14 00:12:18;;;;;;;24.90;14.37;;;;;;;9.21;100.00;100348.66;2081156;28;20426;-75
2023/12/14 00:13:19;;;;;;;22.83;14.97;;;;;;;9.26;100.00;100351.72;2080287;28;20177;-74
2023/12/14 00:14:19;;;;;;;25.23;16.20;;;;;;;9.25;100.00;100346.59;2079945;28;20266;-74
2023/12/14 00:15:20;;;;;;;26.20;16.33;;;;;;;9.22;100.00;100353.78;2079525;28;20193;-74
2023/12/14 00:16:20;;;;;;;27.40;16.30;;;;;;;9.24;100.00;100350.59;2087352;28;20276;-74
2023/12/14 00:17:21;;;;;;;28.17;15.87;;;;;;;9.11;100.00;100342.19;2085321;28;20197;-74
2023/12/14 00:18:21;;;;;;;25.07;15.60;;;;;;;9.26;100.00;100359.22;2087932;28;20282;-74
2023/12/14 00:19:23;;;;;;;27.13;14.77;;;;;;;8.55;100.00;100251.44;2088185;28;20194;-74
2023/12/14 00:20:24;;;;;;;22.83;15.27;;;;;;;9.16;100.00;100352.72;2086246;28;20313;-74
2023/12/14 00:21:24;;;;;;;27.00;15.70;;;;;;;9.24;100.00;100358.88;2081386;28;20403;-75
2023/12/14 00:22:25;;;;;;;23.43;15.20;;;;;;;9.33;100.00;100359.84;2088607;28;20204;-74
2023/12/14 00:23:26;;;;;;;25.37;14.83;;;;;;;9.24;100.00;100339.53;2080033;28;20200;-74
2023/12/14 00:24:26;;;;;;;25.30;15.93;;;;;;;9.32;100.00;100350.00;2077845;28;20188;-75
2023/12/14 00:25:27;;;;;;;21.60;13.93;;;;;;;9.28;100.00;100354.06;2073704;28;20248;-74
2023/12/14 00:26:27;;;;;;;28.37;16.13;;;;;;;9.28;100.00;100354.81;2079478;28;20188;-74
2023/12/14 00:27:28;;;;;;;23.97;15.17;;;;;;;9.15;100.00;100345.66;2083413;28;20717;-74
2023/12/14 00:28:28;;;;;;;26.63;15.07;;;;;;;9.23;100.00;100366.38;2085559;28;20169;-74
2023/12/14 00:29:29;;;;;;;27.90;15.90;;;;;;;9.22;100.00;100370.38;2086797;28;20660;-74
2023/12/14 00:30:29;;;;;;;25.37;14.83;;;;;;;9.20;100.00;100360.94;2080023;28;20200;-74
2023/12/14 00:31:30;;;;;;;22.87;15.10;;;;;;;9.23;100.00;100373.91;2080670;28;20183;-74
2023/12/14 00:32:30;;;;;;;23.60;15.13;;;;;;;9.22;100.00;100369.59;2086696;28;20855;-74
2023/12/14 00:33:31;;;;;;;23.23;14.63;;;;;;;9.24;100.00;100376.25;2082502;28;20231;-74
2023/12/14 00:34:31;;;;;;;24.97;14.97;;;;;;;9.12;100.00;100356.78;2079687;28;20203;-75
2023/12/14 00:35:32;;;;;;;29.17;16.53;;;;;;;8.64;100.00;100293.09;2080142;28;20189;-74
2023/12/14 00:36:32;;;;;;;26.87;15.03;;;;;;;9.18;100.00;100372.41;2078663;28;20189;-74
2023/12/14 00:37:33;;;;;;;25.47;15.10;;;;;;;9.18;100.00;100371.66;2081968;28;20254;-75
2023/12/14 00:38:33;;;;;;;26.00;14.57;;;;;;;9.18;100.00;100371.66;2079656;28;20268;-74
2023/12/14 00:39:34;;;;;;;25.10;16.00;;;;;;;9.15;100.00;100376.06;2081238;28;20177;-74
2023/12/14 00:40:34;;;;;;;26.20;15.13;;;;;;;8.65;100.00;100308.44;2088437;28;20199;-74
2023/12/14 00:41:35;;;;;;;23.63;14.63;;;;;;;9.17;100.00;100386.69;2082349;28;20641;-74
2023/12/14 00:42:35;;;;;;;28.07;15.37;;;;;;;9.17;100.00;100381.94;2082201;28;20270;-74
2023/12/14 00:43:37;;;;;;;22.77;13.93;;;;;;;9.13;100.00;100372.94;2083729;28;20207;-74
2023/12/14 00:44:37;;;;;;;25.90;14.77;;;;;;;8.69;100.00;100304.44;2078699;28;20703;-75
2023/12/14 00:45:38;;;;;;;25.67;15.73;;;;;;;9.18;100.00;100389.00;2082105;28;20803;-74
2023/12/14 00:46:38;;;;;;;25.30;14.80;;;;;;;9.06;100.00;100370.31;2087234;28;20736;-74
2023/12/14 00:47:39;;;;;;;22.67;14.37;;;;;;;9.14;100.00;100390.31;2083376;28;20695;-74
2023/12/14 00:48:39;;;;;;;24.70;15.20;;;;;;;9.07;100.00;100390.47;2080328;28;20849;-74
2023/12/14 00:49:40;;;;;;;26.57;14.57;;;;;;;9.11;100.00;100383.63;2077036;28;20701;-75
2023/12/14 00:50:40;;;;;;;24.47;15.50;;;;;;;9.13;100.00;100385.97;2074122;28;20671;-74
2023/12/14 00:51:41;;;;;;;26.77;15.03;;;;;;;8.95;100.00;100333.06;2085158;28;20571;-74
2023/12/14 00:52:41;;;;;;;27.00;14.83;;;;;;;9.16;100.00;100352.72;2086461;28;20259;-74
2023/12/14 00:53:42;;;;;;;24.60;14.90;;;;;;;9.06;100.00;100331.63;2079545;28;20288;-74
2023/12/14 00:54:42;;;;;;;27.77;15.70;;;;;;;9.20;100.00;100352.66;2079022;28;20241;-74
2023/12/14 00:55:44;;;;;;;23.30;15.30;;;;;;;9.24;100.00;100356.13;2079967;28;20742;-74
2023/12/14 00:56:45;;;;;;;27.37;15.37;;;;;;;8.55;100.00;100257.75;2082168;28;20708;-74
2023/12/14 00:57:45;;;;;;;21.50;13.90;;;;;;;9.20;100.00;100372.78;2085265;28;20822;-75
2023/12/14 00:58:46;;;;;;;27.17;14.73;;;;;;;9.15;100.00;100351.19;2080636;28;20593;-74
2023/12/14 00:59:46;;;;;;;26.63;15.83;;;;;;;9.14;100.00;100348.84;2088275;28;20551;-74
2023/12/14 01:00:47;;;;;;;22.90;14.73;;;;;;;9.17;100.00;100359.06;2080932;28;20294;-74
2023/12/14 01:01:47;;;;;;;25.03;14.93;;;;;;;9.10;100.00;100348.13;2080305;28;20192;-74
2023/12/14 01:02:48;;;;;;;25.17;15.33;;;;;;;9.19;100.00;100351.09;2083534;28;20192;-74
2023/12/14 01:03:48;;;;;;;27.60;16.07;;;;;;;9.17;100.00;100348.75;2086716;28;20199;-74
2023/12/14 01:04:49;;;;;;;23.87;13.57;;;;;;;9.15;100.00;100353.16;2085057;28;20621;-75
2023/12/14 01:05:49;;;;;;;27.00;13.80;;;;;;;9.22;100.00;100355.78;2081694;28;20189;-74
2023/12/14 01:06:50;;;;;;;24.23;14.57;;;;;;;9.16;100.00;100327.84;2087254;28;20195;-74
2023/12/14 01:07:50;;;;;;;21.80;13.73;;;;;;;9.31;100.00;100340.16;2084176;28;20267;-74
2023/12/14 01:08:51;;;;;;;33.73;15.33;;;;;;;9.22;100.00;100339.94;2079871;28;20217;-74
2023/12/14 01:09:51;;;;;;;23.43;14.53;;;;;;;9.23;100.00;100349.78;2079522;28;20613;-74
2023/12/14 01:10:52;;;;;;;23.67;14.97;;;;;;;9.22;100.00;100350.25;2080329;28;20199;-74
2023/12/14 01:11:52;;;;;;;20.07;13.20;;;;;;;9.17;100.00;100351.50;2079948;28;20236;-74
2023/12/14 01:12:53;;;;;;;23.80;14.43;;;;;;;9.17;100.00;100346.00;2083455;28;20660;-74
2023/12/14 01:13:53;;;;;;;25.03;14.07;;;;;;;9.18;100.00;100346.78;2085431;28;20208;-74
2023/12/14 01:14:54;;;;;;;24.27;14.90;;;;;;;9.17;100.00;100346.00;2081103;28;20185;-74
2023/12/14 01:15:54;;;;;;;25.53;15.27;;;;;;;9.20;100.00;100342.38;2088615;28;20186;-74
2023/12/14 01:16:54;;;;;;;26.33;14.23;;;;;;;9.14;100.00;100329.47;2079884;28;20243;-74
2023/12/14 01:17:55;;;;;;;23.17;14.20;;;;;;;9.21;100.00;100343.94;2083907;28;20215;-74
2023/12/14 01:18:55;;;;;;;24.40;14.90;;;;;;;9.17;100.00;100337.69;2081905;28;20211;-75
2023/12/14 01:19:56;;;;;;;26.23;14.43;;;;;;;9.13;100.00;100327.94;2079989;28;20279;-74
2023/12/14 01:20:56;;;;;;;26.13;14.73;;;;;;;9.17;100.00;100350.75;2083390;28;20197;-74
2023/12/14 01:21:57;;;;;;;23.33;14.17;;;;;;;9.16;100.00;100344.44;2085612;28;20187;-74
2023/12/14 01:22:57;;;;;;;19.93;13.80;;;;;;;9.18;100.00;100347.53;2083184;28;20263;-74
2023/12/14 01:23:58;;;;;;;23.33;14.47;;;;;;;9.16;100.00;100344.44;2088265;28;20177;-74
2023/12/14 01:24:59;;;;;;;23.03;14.10;;;;;;;8.38;100.00;100211.19;2080415;28;20757;-74
2023/12/14 01:25:59;;;;;;;20.80;13.30;;;;;;;9.18;100.00;100339.25;2087115;28;20196;-74
2023/12/14 01:27:00;;;;;;;20.47;13.67;;;;;;;9.04;100.00;100319.44;2081388;28;20196;-74
2023/12/14 01:28:00;;;;;;;22.67;13.93;;;;;;;9.19;100.00;100337.28;2084785;28;20281;-74
2023/12/14 01:29:01;;;;;;;21.43;14.23;;;;;;;8.84;100.00;100286.34;2084358;28;20193;-74
2023/12/14 01:30:01;;;;;;;20.77;14.60;;;;;;;9.15;100.00;100331.03;2081428;28;20570;-74
2023/12/14 01:31:02;;;;;;;22.60;14.23;;;;;;;9.21;100.00;100337.59;2086347;28;20173;-74
2023/12/14 01:32:02;;;;;;;24.70;13.67;;;;;;;9.17;100.00;100332.16;2079961;28;20188;-74
2023/12/14 01:33:03;;;;;;;23.80;14.57;;;;;;;9.23;100.00;100324.91;2083782;28;20181;-74
2023/12/14 01:34:03;;;;;;;25.27;13.73;;;;;;;9.25;100.00;100328.03;2080116;28;20211;-74
2023/12/14 01:35:04;;;;;;;20.93;13.37;;;;;;;8.97;100.00;100278.16;2080177;28;20189;-74
2023/12/14 01:36:05;;;;;;;24.13;13.20;;;;;;;9.28;100.00;100323.63;2081377;28;20645;-74
2023/12/14 01:37:06;;;;;;;20.50;13.87;;;;;;;9.13;100.00;100303.06;2085116;28;20578;-74
2023/12/14 01:38:07;;;;;;;21.37;13.13;;;;;;;9.27;100.00;100316.56;2086133;28;20209;-74
2023/12/14 01:39:08;;;;;;;20.87;13.30;;;;;;;9.25;100.00;100313.44;2081124;28;20442;-74
2023/12/14 01:40:09;;;;;;;24.40;14.17;;;;;;;9.25;100.00;100318.97;2084771;28;20933;-74
2023/12/14 01:41:09;;;;;;;24.20;13.57;;;;;;;9.24;100.00;100312.66;2081137;28;20256;-74
2023/12/14 01:42:10;;;;;;;22.07;13.17;;;;;;;9.16;100.00;100304.94;2081022;28;20196;-74
2023/12/14 01:43:10;;;;;;;23.13;14.17;;;;;;;9.10;100.00;100301.13;2084851;28;20200;-74
2023/12/14 01:44:11;;;;;;;21.60;14.40;;;;;;;9.16;100.00;100314.03;2088742;28;20604;-75
2023/12/14 01:45:15;;;;;;;21.37;12.70;;;;;;;8.45;100.00;100213.81;2085094;28;20283;-74
2023/12/14 01:46:16;;;;;;;22.20;12.93;;;;;;;9.17;100.00;100318.34;2081277;28;20639;-74
2023/12/14 01:47:17;;;;;;;23.63;13.40;;;;;;;9.17;100.00;100309.28;2080552;28;20467;-74
2023/12/14 01:48:17;;;;;;;25.57;13.70;;;;;;;8.73;100.00;100249.88;2084736;28;20468;-74
2023/12/14 01:49:18;;;;;;;20.37;12.70;;;;;;;8.91;100.00;100275.13;2081507;28;20192;-74
2023/12/14 01:50:18;;;;;;;24.67;13.57;;;;;;;9.12;100.00;100316.09;2081600;28;20185;-74
2023/12/14 01:51:19;;;;;;;20.43;13.57;;;;;;;9.14;100.00;100316.44;2088141;28;20191;-74
2023/12/14 01:52:19;;;;;;;21.90;13.17;;;;;;;9.14;100.00;100313.69;2082790;28;20211;-74
2023/12/14 01:53:20;;;;;;;22.97;14.00;;;;;;;9.15;100.00;100317.22;2086527;28;20195;-74
2023/12/14 01:54:20;;;;;;;22.80;13.97;;;;;;;9.12;100.00;100307.03;2093104;28;20202;-74
2023/12/14 01:55:22;;;;;;;25.27;13.13;;;;;;;9.17;100.00;100312.81;2091438;28;20204;-74
2023/12/14 01:56:22;;;;;;;21.43;12.73;;;;;;;9.14;100.00;100310.13;2081051;28;20185;-74
2023/12/14 01:57:23;;;;;;;20.40;13.13;;;;;;;9.15;100.00;100314.44;2081479;28;20415;-75
2023/12/14 01:58:25;;;;;;;22.63;13.63;;;;;;;9.14;100.00;100310.13;2087016;28;20303;-74
2023/12/14 01:59:25;;;;;;;20.23;12.33;;;;;;;9.16;100.00;100319.56;2081680;28;20184;-74
2023/12/14 02:01:00;;;;;;;24.23;12.07;;;;;;;9.18;100.00;100328.19;2081295;28;20470;-75
2023/12/14 02:02:02;;;;;;;23.13;13.80;;;;;;;9.17;100.00;100334.16;2080206;28;20176;-74
2023/12/14 02:03:03;;;;;;;21.40;13.07;;;;;;;9.13;100.00;100334.22;2082526;28;20415;-75
2023/12/14 02:04:06;;;;;;;20.03;12.70;;;;;;;9.14;100.00;100333.03;2085702;28;20433;-74
2023/12/14 02:05:07;;;;;;;20.50;12.80;;;;;;;9.12;100.00;100335.44;2081391;28;20466;-74
2023/12/14 02:06:08;;;;;;;20.63;13.17;;;;;;;8.80;100.00;100293.13;2088099;28;20440;-74
2023/12/14 02:07:08;;;;;;;20.50;13.33;;;;;;;9.12;100.00;100342.97;2083191;28;20212;-74
2023/12/14 02:08:08;;;;;;;27.27;13.40;;;;;;;9.12;100.00;100337.44;2084579;28;20873;-74
2023/12/14 02:09:09;;;;;;;21.27;12.77;;;;;;;9.09;100.00;100341.84;2085828;28;20371;-74
2023/12/14 02:10:10;;;;;;;21.90;12.47;;;;;;;9.10;100.00;100335.09;2081158;28;20181;-75
2023/12/14 02:11:11;;;;;;;21.53;12.40;;;;;;;9.09;100.00;100336.31;2082387;28;20181;-74
2023/12/14 02:12:12;;;;;;;22.00;13.10;;;;;;;9.04;100.00;100316.69;2088429;28;20183;-74
2023/12/14 02:13:12;;;;;;;21.70;13.07;;;;;;;9.14;100.00;100330.28;2089307;28;20449;-74
2023/12/14 02:14:13;;;;;;;20.40;12.53;;;;;;;9.14;100.00;100326.72;2081453;28;20201;-74
2023/12/14 02:15:13;;;;;;;20.50;12.50;;;;;;;9.15;100.00;100334.59;2081257;28;20287;-74
2023/12/14 02:16:14;;;;;;;20.07;12.30;;;;;;;9.14;100.00;100335.81;2081525;28;20196;-74
2023/12/14 02:17:15;;;;;;;21.10;12.80;;;;;;;9.14;100.00;100343.31;2085198;28;20188;-74
2023/12/14 02:18:15;;;;;;;20.23;13.37;;;;;;;9.09;100.00;100339.06;2086209;28;20545;-74
2023/12/14 02:19:16;;;;;;;21.87;12.80;;;;;;;9.04;100.00;100336.81;2073739;28;20200;-74
2023/12/14 02:20:16;;;;;;;23.47;13.57;;;;;;;8.94;100.00;100332.31;2079836;28;20177;-74
2023/12/14 02:21:18;;;;;;;27.40;13.53;;;;;;;9.02;100.00;100350.28;2081804;28;20237;-74
2023/12/14 02:22:19;;;;;;;21.57;13.37;;;;;;;9.03;100.00;100362.88;2080693;28;20188;-74
2023/12/14 02:23:19;;;;;;;24.57;14.00;;;;;;;8.91;100.00;100371.06;2083288;28;20454;-74
2023/12/14 02:24:20;;;;;;;22.30;12.63;;;;;;;8.83;100.00;100383.47;2088854;28;20194;-74
2023/12/14 02:25:22;;;;;;;25.00;13.60;;;;;;;8.68;100.00;100396.00;2085152;28;20294;-74
2023/12/14 02:26:22;;;;;;;22.13;12.27;;;;;;;8.32;100.00;100400.63;2080762;28;20786;-74
2023/12/14 02:27:23;;;;;;;23.50;13.97;;;;;;;8.20;100.00;100409.53;2080523;28;20975;-74
2023/12/14 02:28:23;;;;;;;23.30;13.47;;;;;;;8.04;100.00;100423.97;2087639;28;20189;-74
2023/12/14 02:29:24;;;;;;;26.40;12.77;;;;;;;7.04;100.00;100319.59;2089157;28;20328;-74
2023/12/14 02:30:24;;;;;;;22.43;13.27;;;;;;;7.57;100.00;100416.03;2081149;28;20188;-74
2023/12/14 02:31:25;;;;;;;25.73;15.13;;;;;;;7.55;100.00;100433.03;2081120;28;20192;-74
2023/12/14 02:32:25;;;;;;;27.07;17.90;;;;;;;7.48;100.00;100440.63;2080483;28;20199;-75
2023/12/14 02:33:26;;;;;;;28.10;18.13;;;;;;;7.38;100.00;100430.53;2084882;28;20207;-74
2023/12/14 02:34:26;;;;;;;23.87;15.03;;;;;;;7.40;100.00;100439.16;2084155;28;20323;-74
2023/12/14 02:35:27;;;;;;;25.17;14.87;;;;;;;7.38;100.00;100438.78;2086617;28;20196;-74
2023/12/14 02:36:27;;;;;;;32.03;19.50;;;;;;;7.29;100.00;100446.78;2093348;28;20181;-74
2023/12/14 02:37:28;;;;;;;29.37;15.50;;;;;;;7.31;100.00;100445.19;2081696;28;20217;-74
2023/12/14 02:38:28;;;;;;;31.47;18.27;;;;;;;7.31;100.00;100455.41;2089263;28;20216;-74
2023/12/14 02:39:29;;;;;;;26.33;15.27;;;;;;;7.27;100.00;100449.94;2081749;28;20230;-74
2023/12/14 02:40:29;;;;;;;27.73;14.13;;;;;;;7.21;100.00;100450.81;2079178;28;20304;-75
2023/12/14 02:41:30;;;;;;;24.57;14.67;;;;;;;7.19;100.00;100443.00;2075669;28;20202;-74
2023/12/14 02:42:30;;;;;;;24.20;13.47;;;;;;;6.53;100.00;100366.69;2087002;28;20312;-75
2023/12/14 02:43:31;;;;;;;20.43;11.93;;;;;;;6.21;100.00;100319.47;2088949;28;20681;-74
2023/12/14 02:44:31;;;;;;;20.67;14.33;;;;;;;7.06;100.00;100441.97;2079239;28;20182;-74
2023/12/14 02:45:32;;;;;;;22.77;13.20;;;;;;;7.14;100.00;100451.72;2081131;28;20268;-74
2023/12/14 02:46:32;;;;;;;22.40;14.60;;;;;;;7.14;100.00;100448.97;2080737;28;20191;-74
2023/12/14 02:47:33;;;;;;;21.87;11.47;;;;;;;6.34;100.00;100337.00;2080906;28;20201;-74
2023/12/14 02:48:34;;;;;;;23.77;11.03;;;;;;;7.05;100.00;100447.88;2087691;28;20717;-74
2023/12/14 02:49:34;;;;;;;22.17;12.50;;;;;;;7.01;100.00;100444.38;2083676;28;20208;-74
2023/12/14 02:50:35;;;;;;;23.33;11.30;;;;;;;7.02;100.00;100451.47;2083204;28;20195;-74
2023/12/14 02:51:36;;;;;;;19.57;11.07;;;;;;;6.98;100.00;100439.72;2080801;28;20203;-74
2023/12/14 02:52:36;;;;;;;19.07;11.67;;;;;;;6.72;100.00;100379.84;2088486;28;20223;-74
2023/12/14 02:53:37;;;;;;;24.90;14.43;;;;;;;7.14;100.00;100437.94;2087499;28;20182;-74
2023/12/14 02:54:39;;;;;;;19.07;12.07;;;;;;;7.20;100.00;100443.75;2080276;28;20226;-74
2023/12/14 02:55:40;;;;;;;20.73;11.83;;;;;;;7.21;100.00;100451.63;2080794;28;20179;-74
2023/12/14 02:56:40;;;;;;;19.37;11.77;;;;;;;7.20;100.00;100447.28;2080324;28;20456;-74
2023/12/14 02:57:41;;;;;;;18.87;10.97;;;;;;;6.98;100.00;100412.16;2087194;28;20233;-75
2023/12/14 02:58:41;;;;;;;22.03;11.43;;;;;;;7.21;100.00;100431.53;2088562;28;20656;-74
2023/12/14 02:59:42;;;;;;;20.13;11.73;;;;;;;7.22;100.00;100433.88;2088974;28;20257;-75
2023/12/14 03:00:42;;;;;;;17.67;10.77;;;;;;;7.13;100.00;100427.31;2086054;28;20227;-74
2023/12/14 03:01:43;;;;;;;18.93;11.43;;;;;;;7.13;100.00;100432.81;2080957;28;20195;-74
2023/12/14 03:02:43;;;;;;;21.17;12.60;;;;;;;7.06;100.00;100430.94;2080213;28;20242;-74
2023/12/14 03:03:44;;;;;;;25.30;15.23;;;;;;;7.13;100.00;100446.59;2085334;28;20613;-74
2023/12/14 03:04:44;;;;;;;24.00;13.33;;;;;;;6.93;100.00;100412.63;2080765;28;20719;-74
2023/12/14 03:05:45;;;;;;;27.37;13.20;;;;;;;7.13;100.00;100446.59;2079524;28;20206;-74
2023/12/14 03:06:45;;;;;;;24.87;12.60;;;;;;;7.02;100.00;100413.66;2086195;28;20637;-74
2023/12/14 03:07:46;;;;;;;23.60;12.83;;;;;;;7.21;100.00;100426.81;2084431;28;20559;-74
2023/12/14 03:08:46;;;;;;;22.10;12.80;;;;;;;7.21;100.00;100423.25;2085672;28;20223;-74
2023/12/14 03:09:47;;;;;;;23.43;13.70;;;;;;;7.19;100.00;100420.94;2086459;28;20191;-74
2023/12/14 03:10:47;;;;;;;22.77;12.77;;;;;;;7.14;100.00;100404.06;2082142;28;20229;-74
2023/12/14 03:11:50;;;;;;;25.93;13.27;;;;;;;7.12;100.00;100415.50;2089225;28;20254;-74
2023/12/14 03:12:50;;;;;;;23.17;11.97;;;;;;;7.18;100.00;100429.63;2080390;28;20214;-75
2023/12/14 03:13:51;;;;;;;23.90;12.83;;;;;;;7.21;100.00;100429.56;2087126;28;20484;-74
2023/12/14 03:14:51;;;;;;;26.27;12.77;;;;;;;7.25;100.00;100429.50;2082785;28;20204;-74
2023/12/14 03:15:52;;;;;;;27.00;13.73;;;;;;;7.29;100.00;100425.50;2082934;28;20227;-74
2023/12/14 03:16:52;;;;;;;24.87;13.00;;;;;;;7.31;100.00;100419.56;2084025;28;20203;-74
2023/12/14 03:17:53;;;;;;;27.97;13.33;;;;;;;7.32;100.00;100419.16;2080648;28;20291;-74
2023/12/14 03:18:53;;;;;;;21.53;11.90;;;;;;;7.34;100.00;100421.50;2084134;28;20334;-74
2023/12/14 03:19:54;;;;;;;23.53;13.97;;;;;;;7.37;100.00;100415.16;2084502;28;20183;-74
2023/12/14 03:20:54;;;;;;;20.10;12.77;;;;;;;7.39;100.00;100416.31;2083497;28;20232;-74
2023/12/14 03:21:55;;;;;;;20.13;12.77;;;;;;;7.45;100.00;100424.91;2088805;28;20202;-74
2023/12/14 03:22:55;;;;;;;23.27;12.60;;;;;;;7.42;100.00;100421.00;2072979;28;20204;-75
2023/12/14 03:23:56;;;;;;;22.90;12.60;;;;;;;7.47;100.00;100416.97;2076345;28;20188;-74
2023/12/14 03:24:57;;;;;;;20.17;11.77;;;;;;;7.52;100.00;100417.31;2084677;28;20203;-74
2023/12/14 03:25:57;;;;;;;18.87;11.93;;;;;;;7.56;100.00;100425.53;2083899;28;20278;-74
2023/12/14 03:26:57;;;;;;;21.10;12.77;;;;;;;7.61;100.00;100427.81;2085581;28;20176;-74
2023/12/14 03:27:58;;;;;;;24.80;12.63;;;;;;;7.64;100.00;100433.28;2083638;28;20227;-75
2023/12/14 03:28:58;;;;;;;21.43;12.30;;;;;;;7.67;100.00;100423.38;2089072;28;20183;-74
2023/12/14 03:29:59;;;;;;;21.37;12.50;;;;;;;7.66;100.00;100419.84;2080613;28;20282;-75
2023/12/14 03:31:00;;;;;;;22.20;12.47;;;;;;;6.90;100.00;100306.78;2073145;28;20213;-75
2023/12/14 03:32:00;;;;;;;18.93;11.97;;;;;;;7.68;100.00;100419.44;2072066;28;20203;-74
2023/12/14 03:33:01;;;;;;;25.50;12.17;;;;;;;7.71;100.00;100419.38;2080172;28;20195;-74
2023/12/14 03:34:02;;;;;;;22.93;12.67;;;;;;;7.55;100.00;100408.22;2081623;28;20660;-74
2023/12/14 03:35:03;;;;;;;21.00;12.10;;;;;;;7.62;100.00;100426.59;2080416;28;20181;-74
2023/12/14 03:36:04;;;;;;;18.97;11.97;;;;;;;7.68;100.00;100438.75;2080779;28;20434;-75
2023/12/14 03:37:05;;;;;;;18.60;11.60;;;;;;;7.10;100.00;100338.00;2080367;28;20180;-75
2023/12/14 03:38:05;;;;;;;20.93;12.60;;;;;;;7.78;100.00;100432.25;2088303;28;20505;-75
2023/12/14 03:39:06;;;;;;;21.07;10.97;;;;;;;7.76;100.00;100432.72;2087158;28;20249;-74
2023/12/14 03:40:07;;;;;;;21.83;13.13;;;;;;;7.80;100.00;100436.16;2086924;28;20215;-74
2023/12/14 03:41:07;;;;;;;22.60;12.60;;;;;;;7.70;100.00;100422.56;2083402;28;20224;-75
2023/12/14 03:42:08;;;;;;;22.63;13.17;;;;;;;7.79;100.00;100436.59;2079862;28;20466;-75
2023/12/14 03:43:08;;;;;;;19.63;11.67;;;;;;;7.80;100.00;100425.13;2082385;28;20196;-75
2023/12/14 03:44:09;;;;;;;21.63;11.97;;;;;;;7.85;100.00;100423.91;2085811;28;20188;-74
2023/12/14 03:45:10;;;;;;;22.60;11.27;;;;;;;7.15;100.00;100322.97;2079864;28;20187;-74
2023/12/14 03:46:11;;;;;;;21.23;12.07;;;;;;;7.86;100.00;100437.28;2080650;28;20673;-75
2023/12/14 03:47:11;;;;;;;18.90;12.73;;;;;;;7.87;100.00;100449.09;2080122;28;20812;-75
2023/12/14 03:48:12;;;;;;;21.07;11.50;;;;;;;7.88;100.00;100454.19;2079687;28;20283;-75
2023/12/14 03:49:12;;;;;;;20.93;11.97;;;;;;;7.04;100.00;100322.34;2080793;28;20194;-75
2023/12/14 03:50:13;;;;;;;21.10;11.67;;;;;;;7.86;100.00;100456.59;2080127;28;20262;-74
2023/12/14 03:51:18;;;;;;;21.43;11.37;;;;;;;7.89;100.00;100458.50;2080464;28;20225;-75
2023/12/14 03:52:18;;;;;;;17.60;10.67;;;;;;;7.21;100.00;100340.59;2083411;28;20711;-74
2023/12/14 03:53:19;;;;;;;19.43;11.60;;;;;;;7.91;100.00;100447.06;2080002;28;20801;-74
2023/12/14 03:54:20;;;;;;;22.50;11.83;;;;;;;7.91;100.00;100447.06;2085853;28;20197;-74
2023/12/14 03:55:20;;;;;;;22.00;12.53;;;;;;;7.91;100.00;100456.13;2080250;28;20185;-74
2023/12/14 03:56:21;;;;;;;23.80;11.57;;;;;;;7.80;100.00;100429.88;2088205;28;20191;-74
2023/12/14 03:57:21;;;;;;;19.87;11.43;;;;;;;7.93;100.00;100445.44;2081850;28;20642;-75
2023/12/14 03:58:22;;;;;;;20.87;11.73;;;;;;;7.92;100.00;100434.81;2085465;28;20238;-74
2023/12/14 03:59:22;;;;;;;20.00;12.17;;;;;;;7.87;100.00;100438.03;2083489;28;20205;-75
2023/12/14 04:00:23;;;;;;;24.80;13.10;;;;;;;7.93;100.00;100439.91;2083435;28;20195;-75
2023/12/14 04:01:23;;;;;;;23.67;12.13;;;;;;;7.92;100.00;100449.41;2086962;28;20183;-75
2023/12/14 04:02:24;;;;;;;20.60;11.40;;;;;;;7.91;100.00;100449.81;2080067;28;20687;-75
2023/12/14 04:03:24;;;;;;;19.10;11.17;;;;;;;7.87;100.00;100452.63;2080180;28;20238;-75
2023/12/14 04:04:25;;;;;;;19.77;12.03;;;;;;;7.21;100.00;100344.13;2086719;28;20202;-75
2023/12/14 04:05:25;;;;;;;21.60;12.47;;;;;;;7.86;100.00;100447.53;2088522;28;20283;-74
2023/12/14 04:06:26;;;;;;;19.40;11.73;;;;;;;7.81;100.00;100439.72;2082269;28;20223;-74
2023/12/14 04:07:26;;;;;;;19.17;12.20;;;;;;;7.81;100.00;100443.28;2080436;28;20203;-75
2023/12/14 04:08:27;;;;;;;23.03;12.00;;;;;;;7.77;100.00;100426.00;2079916;28;20196;-74
2023/12/14 04:09:27;;;;;;;22.07;11.23;;;;;;;7.82;100.00;100436.56;2085117;28;20188;-75
2023/12/14 04:10:28;;;;;;;24.37;11.87;;;;;;;7.79;100.00;100431.84;2079609;28;20271;-74
2023/12/14 04:11:28;;;;;;;31.40;11.47;;;;;;;7.32;100.00;100357.72;2080809;28;20185;-74
2023/12/14 04:12:28;;;;;;;22.23;11.33;;;;;;;7.79;100.00;100431.09;2079915;28;20205;-74
2023/12/14 04:13:29;;;;;;;22.83;11.83;;;;;;;7.77;100.00;100414.94;2080564;28;20287;-74
2023/12/14 04:14:30;;;;;;;18.43;11.27;;;;;;;7.65;100.00;100412.78;2081097;28;20200;-75
2023/12/14 04:15:30;;;;;;;19.33;10.90;;;;;;;7.79;100.00;100431.09;2084410;28;20215;-74
2023/12/14 04:16:31;;;;;;;15.60;9.70;;;;;;;7.79;100.00;100437.38;2087753;28;20204;-75
2023/12/14 04:17:31;;;;;;;18.40;11.17;;;;;;;7.48;100.00;100388.25;2086237;28;20302;-75
2023/12/14 04:18:32;;;;;;;20.83;11.77;;;;;;;7.75;100.00;100435.88;2081365;28;20216;-74
2023/12/14 04:19:32;;;;;;;22.53;13.30;;;;;;;7.19;100.00;100352.03;2088037;28;20529;-74
2023/12/14 04:20:33;;;;;;;21.57;12.93;;;;;;;7.69;100.00;100437.56;2079751;28;20627;-75
2023/12/14 04:21:33;;;;;;;23.13;11.80;;;;;;;7.58;100.00;100426.66;2080359;28;20208;-75
2023/12/14 04:22:34;;;;;;;24.47;12.17;;;;;;;6.67;100.00;100312.22;2079781;28;20224;-75
2023/12/14 04:23:34;;;;;;;21.43;12.50;;;;;;;7.70;100.00;100458.41;2080073;28;20200;-75
2023/12/14 04:24:35;;;;;;;20.93;12.87;;;;;;;7.70;100.00;100461.16;2086974;28;20184;-75
2023/12/14 04:25:35;;;;;;;20.60;11.80;;;;;;;7.70;100.00;100466.69;2085780;28;20370;-76
2023/12/14 04:26:36;;;;;;;21.93;14.10;;;;;;;7.69;100.00;100467.88;2079257;28;20185;-75
2023/12/14 04:27:37;;;;;;;31.17;14.43;;;;;;;7.61;100.00;100463.66;2080163;28;20251;-75
2023/12/14 04:28:37;;;;;;;22.10;13.20;;;;;;;7.69;100.00;100478.91;2088673;28;20434;-75
2023/12/14 04:29:38;;;;;;;22.60;13.20;;;;;;;7.70;100.00;100481.25;2088331;28;20192;-75
2023/12/14 04:30:38;;;;;;;20.53;12.87;;;;;;;7.70;100.00;100486.75;2081531;28;20230;-75
2023/12/14 04:31:39;;;;;;;23.03;13.43;;;;;;;7.71;100.00;100491.09;2079723;28;20189;-75
2023/12/14 04:32:39;;;;;;;27.73;13.67;;;;;;;6.82;100.00;100343.13;2079500;28;20204;-75
2023/12/14 04:33:40;;;;;;;23.00;13.70;;;;;;;7.64;100.00;100471.88;2080449;28;20275;-75
2023/12/14 04:34:40;;;;;;;24.03;13.23;;;;;;;6.70;100.00;100325.16;2085476;28;20188;-75
2023/12/14 04:35:41;;;;;;;23.63;13.03;;;;;;;7.50;100.00;100461.06;2079982;28;20189;-75